Terminal Aerodrome Forecast
Issued by NWS Brownsville, TX

Home | Current Version | Previous Version | Text Only | Print | Product List | Glossary On
Versions: 1 2 3 4 5 6 7 8 9 10 11 12 13 14 15
000
FTUS44 KBRO 222328
TAFHRL
TAF
KHRL 222328Z 2300/2324 14017G24KT P6SM SCT050 SCT070
     FM230300 16009KT P6SM SKC
     FM231500 16016G22KT P6SM SKC
     FM231800 17023G30KT P6SM SCT250=

USA.gov is the U.S. government's official web portal to all federal, state and local government web resources and services.